SLCB/CBB METAR and TAF weather

Enter ICAO airport designator
Station Type Date Time Source
SLCB METAR 2022/01/26 14:00 UTC NOAA

SLCB 261400Z 22003KT 9999 FEW030 BKN200 22/11 Q1025


Station Type Date Time Source
SLCB Decoded METAR 2022/01/26 14:00 UTC NOAA

Cochabamba, Bolivia (SLCB) 17-25S 066-11W 2570M
Jan 26, 2022 - 09:00 AM EST / 2022.01.26 1400 UTC
Wind: from the SW (220 degrees) at 3 MPH (3 KT):0
Visibility: greater than 7 mile(s):0
Sky conditions: mostly cloudy
Temperature: 71 F (22 C)
Dew Point: 51 F (11 C)
Relative Humidity: 49%
Pressure (altimeter): 30.27 in. Hg (1025 hPa)
ob: SLCB 261400Z 22003KT 9999 FEW030 BKN200 22/11 Q1025
cycle: 14

Station Type Date Time Source
SLCB TAF 2022/01/26 12:25 UTC NOAA

TAF SLCB 261000Z 2612/2712 00000KT 9999 FEW033 SCT070 TX27/2619Z TN12 /2710Z
BECMG 2614/2616 28010KT FEW033
TEMPO 2619/2621 01510KT FEW033 FEW036CB
BECMG 2703/2705 00000KT FEW030 BKN070

Example: see airport list